sensor_id;sensor_type;location;lat;lon;timestamp;temperature;humidity
18593;DHT22;9426;54.118;17.948;2022-11-14T00:04:13;9.70;99.90
18593;DHT22;9426;54.118;17.948;2022-11-14T00:09:55;9.70;99.90
18593;DHT22;9426;54.118;17.948;2022-11-14T00:15:38;9.60;99.90
18593;DHT22;9426;54.118;17.948;2022-11-14T00:21:20;9.60;99.90
18593;DHT22;9426;54.118;17.948;2022-11-14T00:27:02;9.60;99.90
18593;DHT22;9426;54.118;17.948;2022-11-14T00:32:46;9.50;99.90
18593;DHT22;9426;54.118;17.948;2022-11-14T00:38:28;9.50;99.90
18593;DHT22;9426;54.118;17.948;2022-11-14T00:44:09;9.50;99.90
18593;DHT22;9426;54.118;17.948;2022-11-14T00:49:52;9.50;99.90
18593;DHT22;9426;54.118;17.948;2022-11-14T00:55:34;9.40;99.90
18593;DHT22;9426;54.118;17.948;2022-11-14T01:01:16;9.40;99.90
18593;DHT22;9426;54.118;17.948;2022-11-14T01:06:59;9.30;99.90
18593;DHT22;9426;54.118;17.948;2022-11-14T01:12:41;9.30;99.90
18593;DHT22;9426;54.118;17.948;2022-11-14T01:18:23;9.30;99.90
18593;DHT22;9426;54.118;17.948;2022-11-14T01:24:06;9.30;99.90
18593;DHT22;9426;54.118;17.948;2022-11-14T01:29:48;9.30;99.90
18593;DHT22;9426;54.118;17.948;2022-11-14T01:35:30;9.20;99.90
18593;DHT22;9426;54.118;17.948;2022-11-14T01:41:14;9.20;99.90
18593;DHT22;9426;54.118;17.948;2022-11-14T01:46:56;9.20;99.90
18593;DHT22;9426;54.118;17.948;2022-11-14T01:52:40;9.20;99.90
18593;DHT22;9426;54.118;17.948;2022-11-14T01:58:23;9.20;99.90
18593;DHT22;9426;54.118;17.948;2022-11-14T02:04:06;9.20;99.90
18593;DHT22;9426;54.118;17.948;2022-11-14T02:09:51;9.20;99.90
18593;DHT22;9426;54.118;17.948;2022-11-14T02:15:35;9.10;99.90
18593;DHT22;9426;54.118;17.948;2022-11-14T02:21:18;9.20;99.90
18593;DHT22;9426;54.118;17.948;2022-11-14T02:27:01;9.10;99.90
18593;DHT22;9426;54.118;17.948;2022-11-14T02:32:44;9.00;99.90
18593;DHT22;9426;54.118;17.948;2022-11-14T02:38:47;9.10;99.90
18593;DHT22;9426;54.118;17.948;2022-11-14T02:44:29;9.10;99.90
18593;DHT22;9426;54.118;17.948;2022-11-14T02:50:11;9.00;99.90
18593;DHT22;9426;54.118;17.948;2022-11-14T02:55:54;9.00;99.90
18593;DHT22;9426;54.118;17.948;2022-11-14T03:01:35;9.00;99.90
18593;DHT22;9426;54.118;17.948;2022-11-14T03:07:17;9.00;99.90
18593;DHT22;9426;54.118;17.948;2022-11-14T03:13:00;9.00;99.90
18593;DHT22;9426;54.118;17.948;2022-11-14T03:18:42;9.00;99.90
18593;DHT22;9426;54.118;17.948;2022-11-14T03:24:24;9.00;99.90
18593;DHT22;9426;54.118;17.948;2022-11-14T03:30:08;9.00;99.90
18593;DHT22;9426;54.118;17.948;2022-11-14T03:35:50;9.00;99.90
18593;DHT22;9426;54.118;17.948;2022-11-14T03:41:32;9.10;99.90
18593;DHT22;9426;54.118;17.948;2022-11-14T03:47:15;9.00;99.90
18593;DHT22;9426;54.118;17.948;2022-11-14T03:52:56;9.00;99.90
18593;DHT22;9426;54.118;17.948;2022-11-14T03:58:38;9.00;99.90
18593;DHT22;9426;54.118;17.948;2022-11-14T04:04:20;8.90;99.90
18593;DHT22;9426;54.118;17.948;2022-11-14T04:10:03;8.90;99.90
18593;DHT22;9426;54.118;17.948;2022-11-14T04:15:45;8.90;99.90
18593;DHT22;9426;54.118;17.948;2022-11-14T04:21:28;8.90;99.90
18593;DHT22;9426;54.118;17.948;2022-11-14T04:27:10;8.90;99.90
18593;DHT22;9426;54.118;17.948;2022-11-14T04:32:52;8.80;99.90
18593;DHT22;9426;54.118;17.948;2022-11-14T04:38:35;8.80;99.90
18593;DHT22;9426;54.118;17.948;2022-11-14T04:44:18;8.80;99.90
18593;DHT22;9426;54.118;17.948;2022-11-14T04:50:00;8.80;99.90
18593;DHT22;9426;54.118;17.948;2022-11-14T04:55:44;8.80;99.90
18593;DHT22;9426;54.118;17.948;2022-11-14T05:01:26;8.70;99.90
18593;DHT22;9426;54.118;17.948;2022-11-14T05:07:07;8.70;99.90
18593;DHT22;9426;54.118;17.948;2022-11-14T05:12:53;8.70;99.90
18593;DHT22;9426;54.118;17.948;2022-11-14T05:18:35;8.70;99.90
18593;DHT22;9426;54.118;17.948;2022-11-14T05:24:17;8.60;99.90
18593;DHT22;9426;54.118;17.948;2022-11-14T05:30:00;8.60;99.90
18593;DHT22;9426;54.118;17.948;2022-11-14T05:35:42;8.60;99.90
18593;DHT22;9426;54.118;17.948;2022-11-14T05:41:24;8.50;99.90
18593;DHT22;9426;54.118;17.948;2022-11-14T05:47:07;8.50;99.90
18593;DHT22;9426;54.118;17.948;2022-11-14T05:52:49;8.50;99.90
18593;DHT22;9426;54.118;17.948;2022-11-14T05:58:32;8.50;99.90
18593;DHT22;9426;54.118;17.948;2022-11-14T06:04:15;8.40;99.90
18593;DHT22;9426;54.118;17.948;2022-11-14T06:09:58;8.40;99.90
18593;DHT22;9426;54.118;17.948;2022-11-14T06:15:40;8.40;99.90
18593;DHT22;9426;54.118;17.948;2022-11-14T06:21:24;8.30;99.90
18593;DHT22;9426;54.118;17.948;2022-11-14T06:27:07;8.30;99.90
18593;DHT22;9426;54.118;17.948;2022-11-14T06:32:48;8.30;99.90
18593;DHT22;9426;54.118;17.948;2022-11-14T06:38:32;8.30;99.90
18593;DHT22;9426;54.118;17.948;2022-11-14T06:44:14;8.30;99.90
18593;DHT22;9426;54.118;17.948;2022-11-14T06:49:57;8.30;99.90
18593;DHT22;9426;54.118;17.948;2022-11-14T06:55:40;8.30;99.90
18593;DHT22;9426;54.118;17.948;2022-11-14T07:01:23;8.30;99.90
18593;DHT22;9426;54.118;17.948;2022-11-14T07:07:06;8.30;99.90
18593;DHT22;9426;54.118;17.948;2022-11-14T07:12:49;8.30;99.90
18593;DHT22;9426;54.118;17.948;2022-11-14T07:18:31;8.30;99.90
18593;DHT22;9426;54.118;17.948;2022-11-14T07:24:13;8.40;99.90
18593;DHT22;9426;54.118;17.948;2022-11-14T07:29:56;8.30;99.90
18593;DHT22;9426;54.118;17.948;2022-11-14T07:35:39;8.40;99.90
18593;DHT22;9426;54.118;17.948;2022-11-14T07:41:21;8.40;99.90
18593;DHT22;9426;54.118;17.948;2022-11-14T07:47:03;8.40;99.90
18593;DHT22;9426;54.118;17.948;2022-11-14T07:52:49;8.50;99.90
18593;DHT22;9426;54.118;17.948;2022-11-14T07:58:34;8.60;99.90
18593;DHT22;9426;54.118;17.948;2022-11-14T08:04:17;8.60;99.90
18593;DHT22;9426;54.118;17.948;2022-11-14T08:09:58;8.70;99.90
18593;DHT22;9426;54.118;17.948;2022-11-14T08:15:40;8.70;99.90
18593;DHT22;9426;54.118;17.948;2022-11-14T08:21:23;8.80;99.90
18593;DHT22;9426;54.118;17.948;2022-11-14T08:27:05;8.90;99.90
18593;DHT22;9426;54.118;17.948;2022-11-14T08:32:46;8.90;99.90
18593;DHT22;9426;54.118;17.948;2022-11-14T08:38:31;8.90;99.90
18593;DHT22;9426;54.118;17.948;2022-11-14T08:44:14;8.90;99.90
18593;DHT22;9426;54.118;17.948;2022-11-14T08:49:55;8.90;99.90
18593;DHT22;9426;54.118;17.948;2022-11-14T08:55:42;9.00;99.90
18593;DHT22;9426;54.118;17.948;2022-11-14T09:01:24;9.10;99.90
18593;DHT22;9426;54.118;17.948;2022-11-14T09:07:06;9.00;99.90
18593;DHT22;9426;54.118;17.948;2022-11-14T09:12:54;9.10;99.90
18593;DHT22;9426;54.118;17.948;2022-11-14T09:18:36;9.10;99.90
18593;DHT22;9426;54.118;17.948;2022-11-14T09:24:17;9.10;99.90
18593;DHT22;9426;54.118;17.948;2022-11-14T09:30:01;9.10;99.90
18593;DHT22;9426;54.118;17.948;2022-11-14T09:35:43;9.10;99.90
18593;DHT22;9426;54.118;17.948;2022-11-14T09:41:29;9.10;99.90
18593;DHT22;9426;54.118;17.948;2022-11-14T09:47:19;9.10;99.90
18593;DHT22;9426;54.118;17.948;2022-11-14T09:53:08;9.10;99.90
18593;DHT22;9426;54.118;17.948;2022-11-14T09:58:51;9.10;99.90
18593;DHT22;9426;54.118;17.948;2022-11-14T10:04:47;9.20;99.90
18593;DHT22;9426;54.118;17.948;2022-11-14T10:10:42;9.30;99.90
18593;DHT22;9426;54.118;17.948;2022-11-14T10:16:35;9.40;99.90
18593;DHT22;9426;54.118;17.948;2022-11-14T10:22:39;9.50;99.90
18593;DHT22;9426;54.118;17.948;2022-11-14T10:28:39;9.50;99.90
18593;DHT22;9426;54.118;17.948;2022-11-14T10:34:26;9.50;99.90
18593;DHT22;9426;54.118;17.948;2022-11-14T10:40:18;9.30;99.90
18593;DHT22;9426;54.118;17.948;2022-11-14T10:46:04;9.20;99.90
18593;DHT22;9426;54.118;17.948;2022-11-14T10:51:51;9.10;99.90
18593;DHT22;9426;54.118;17.948;2022-11-14T10:57:35;9.10;99.90
18593;DHT22;9426;54.118;17.948;2022-11-14T11:03:17;9.30;99.90
18593;DHT22;9426;54.118;17.948;2022-11-14T11:08:59;9.30;99.90
18593;DHT22;9426;54.118;17.948;2022-11-14T11:15:13;9.30;99.90
18593;DHT22;9426;54.118;17.948;2022-11-14T11:21:06;9.30;99.90
18593;DHT22;9426;54.118;17.948;2022-11-14T11:26:48;9.30;99.90
18593;DHT22;9426;54.118;17.948;2022-11-14T11:32:51;9.20;99.90
18593;DHT22;9426;54.118;17.948;2022-11-14T11:38:33;9.20;99.90
18593;DHT22;9426;54.118;17.948;2022-11-14T11:44:16;9.00;99.90
18593;DHT22;9426;54.118;17.948;2022-11-14T11:50:01;8.70;99.90
18593;DHT22;9426;54.118;17.948;2022-11-14T11:55:45;8.50;99.90
18593;DHT22;9426;54.118;17.948;2022-11-14T12:01:27;8.40;99.90
18593;DHT22;9426;54.118;17.948;2022-11-14T12:07:13;8.30;99.90
18593;DHT22;9426;54.118;17.948;2022-11-14T12:13:18;8.20;99.90
18593;DHT22;9426;54.118;17.948;2022-11-14T12:25:35;7.90;99.90
18593;DHT22;9426;54.118;17.948;2022-11-14T12:31:18;7.90;99.90
18593;DHT22;9426;54.118;17.948;2022-11-14T12:37:07;7.90;99.90
18593;DHT22;9426;54.118;17.948;2022-11-14T12:42:51;7.80;99.90
18593;DHT22;9426;54.118;17.948;2022-11-14T12:48:35;7.80;99.90
18593;DHT22;9426;54.118;17.948;2022-11-14T12:54:40;7.60;99.90
18593;DHT22;9426;54.118;17.948;2022-11-14T13:00:24;7.60;99.90
18593;DHT22;9426;54.118;17.948;2022-11-14T13:06:08;7.50;99.90
18593;DHT22;9426;54.118;17.948;2022-11-14T13:11:51;7.50;99.90
18593;DHT22;9426;54.118;17.948;2022-11-14T13:18:07;7.40;99.90
18593;DHT22;9426;54.118;17.948;2022-11-14T13:24:11;7.40;99.90
18593;DHT22;9426;54.118;17.948;2022-11-14T13:29:53;7.50;99.90
18593;DHT22;9426;54.118;17.948;2022-11-14T13:35:54;7.60;99.90
18593;DHT22;9426;54.118;17.948;2022-11-14T13:42:14;7.60;99.90
18593;DHT22;9426;54.118;17.948;2022-11-14T13:48:19;7.50;99.90
18593;DHT22;9426;54.118;17.948;2022-11-14T13:54:10;7.60;99.90
18593;DHT22;9426;54.118;17.948;2022-11-14T14:00:01;7.40;99.90
18593;DHT22;9426;54.118;17.948;2022-11-14T14:06:04;7.40;99.90
18593;DHT22;9426;54.118;17.948;2022-11-14T14:12:04;7.40;99.90
18593;DHT22;9426;54.118;17.948;2022-11-14T14:18:01;7.40;99.90
18593;DHT22;9426;54.118;17.948;2022-11-14T14:23:51;7.40;99.90
18593;DHT22;9426;54.118;17.948;2022-11-14T14:29:42;7.40;99.90
18593;DHT22;9426;54.118;17.948;2022-11-14T14:35:27;7.30;99.90
18593;DHT22;9426;54.118;17.948;2022-11-14T14:41:10;7.20;99.90
18593;DHT22;9426;54.118;17.948;2022-11-14T14:46:55;7.20;99.90
18593;DHT22;9426;54.118;17.948;2022-11-14T14:52:37;7.20;99.90
18593;DHT22;9426;54.118;17.948;2022-11-14T14:58:26;7.20;99.90
18593;DHT22;9426;54.118;17.948;2022-11-14T15:04:13;7.20;99.90
18593;DHT22;9426;54.118;17.948;2022-11-14T15:09:58;7.20;99.90
18593;DHT22;9426;54.118;17.948;2022-11-14T15:15:40;7.10;99.90
18593;DHT22;9426;54.118;17.948;2022-11-14T15:21:26;7.10;99.90
18593;DHT22;9426;54.118;17.948;2022-11-14T15:27:12;7.20;99.90
18593;DHT22;9426;54.118;17.948;2022-11-14T15:32:55;7.00;99.90
18593;DHT22;9426;54.118;17.948;2022-11-14T15:38:39;6.90;99.90
18593;DHT22;9426;54.118;17.948;2022-11-14T15:44:29;7.00;99.90
18593;DHT22;9426;54.118;17.948;2022-11-14T15:50:27;6.90;99.90
18593;DHT22;9426;54.118;17.948;2022-11-14T15:56:12;6.90;99.90
18593;DHT22;9426;54.118;17.948;2022-11-14T16:01:58;6.90;99.90
18593;DHT22;9426;54.118;17.948;2022-11-14T16:07:40;6.90;99.90
18593;DHT22;9426;54.118;17.948;2022-11-14T16:13:23;6.90;99.90
18593;DHT22;9426;54.118;17.948;2022-11-14T16:19:06;6.90;99.90
18593;DHT22;9426;54.118;17.948;2022-11-14T16:24:48;6.90;99.90
18593;DHT22;9426;54.118;17.948;2022-11-14T16:30:31;6.90;99.90
18593;DHT22;9426;54.118;17.948;2022-11-14T16:36:14;6.90;99.90
18593;DHT22;9426;54.118;17.948;2022-11-14T16:42:01;6.90;99.90
18593;DHT22;9426;54.118;17.948;2022-11-14T16:47:44;6.80;99.90
18593;DHT22;9426;54.118;17.948;2022-11-14T16:53:25;6.80;99.90
18593;DHT22;9426;54.118;17.948;2022-11-14T16:59:08;6.80;99.90
18593;DHT22;9426;54.118;17.948;2022-11-14T17:04:52;6.80;99.90
18593;DHT22;9426;54.118;17.948;2022-11-14T17:10:39;6.90;99.90
18593;DHT22;9426;54.118;17.948;2022-11-14T17:16:21;6.90;99.90
18593;DHT22;9426;54.118;17.948;2022-11-14T17:22:05;6.90;99.90
18593;DHT22;9426;54.118;17.948;2022-11-14T17:27:46;6.90;99.90
18593;DHT22;9426;54.118;17.948;2022-11-14T17:33:29;6.90;99.90
18593;DHT22;9426;54.118;17.948;2022-11-14T17:39:13;6.90;99.90
18593;DHT22;9426;54.118;17.948;2022-11-14T17:44:55;6.90;99.90
18593;DHT22;9426;54.118;17.948;2022-11-14T17:50:40;6.90;99.90
18593;DHT22;9426;54.118;17.948;2022-11-14T17:56:24;6.90;99.90
18593;DHT22;9426;54.118;17.948;2022-11-14T18:02:12;7.00;99.90
18593;DHT22;9426;54.118;17.948;2022-11-14T18:07:54;6.80;99.90
18593;DHT22;9426;54.118;17.948;2022-11-14T18:13:38;6.90;99.90
18593;DHT22;9426;54.118;17.948;2022-11-14T18:19:20;6.80;99.90
18593;DHT22;9426;54.118;17.948;2022-11-14T18:25:03;6.80;99.90
18593;DHT22;9426;54.118;17.948;2022-11-14T18:30:54;6.80;99.90
18593;DHT22;9426;54.118;17.948;2022-11-14T18:36:36;6.80;99.90
18593;DHT22;9426;54.118;17.948;2022-11-14T18:42:18;6.90;99.90
18593;DHT22;9426;54.118;17.948;2022-11-14T18:48:01;6.90;99.90
18593;DHT22;9426;54.118;17.948;2022-11-14T18:53:44;6.80;99.90
18593;DHT22;9426;54.118;17.948;2022-11-14T18:59:26;6.80;99.90
18593;DHT22;9426;54.118;17.948;2022-11-14T19:05:10;6.90;99.90
18593;DHT22;9426;54.118;17.948;2022-11-14T19:10:51;6.90;99.90
18593;DHT22;9426;54.118;17.948;2022-11-14T19:16:34;6.90;99.90
18593;DHT22;9426;54.118;17.948;2022-11-14T19:22:18;6.80;99.90
18593;DHT22;9426;54.118;17.948;2022-11-14T19:28:00;6.80;99.90
18593;DHT22;9426;54.118;17.948;2022-11-14T19:33:42;6.80;99.90
18593;DHT22;9426;54.118;17.948;2022-11-14T19:39:25;6.80;99.90
18593;DHT22;9426;54.118;17.948;2022-11-14T19:45:08;6.80;99.90
18593;DHT22;9426;54.118;17.948;2022-11-14T19:50:58;6.80;99.90
18593;DHT22;9426;54.118;17.948;2022-11-14T19:56:42;6.80;99.90
18593;DHT22;9426;54.118;17.948;2022-11-14T20:02:24;6.70;99.90
18593;DHT22;9426;54.118;17.948;2022-11-14T20:08:07;6.60;99.90
18593;DHT22;9426;54.118;17.948;2022-11-14T20:13:50;6.60;99.90
18593;DHT22;9426;54.118;17.948;2022-11-14T20:19:32;6.60;99.90
18593;DHT22;9426;54.118;17.948;2022-11-14T20:25:14;6.60;99.90
18593;DHT22;9426;54.118;17.948;2022-11-14T20:31:01;6.60;99.90
18593;DHT22;9426;54.118;17.948;2022-11-14T20:36:43;6.60;99.90
18593;DHT22;9426;54.118;17.948;2022-11-14T20:42:46;6.60;99.90
18593;DHT22;9426;54.118;17.948;2022-11-14T20:48:32;6.70;99.90
18593;DHT22;9426;54.118;17.948;2022-11-14T20:54:13;6.70;99.90
18593;DHT22;9426;54.118;17.948;2022-11-14T20:59:55;6.60;99.90
18593;DHT22;9426;54.118;17.948;2022-11-14T21:05:39;6.70;99.90
18593;DHT22;9426;54.118;17.948;2022-11-14T21:11:21;6.70;99.90
18593;DHT22;9426;54.118;17.948;2022-11-14T21:17:03;6.70;99.90
18593;DHT22;9426;54.118;17.948;2022-11-14T21:22:46;6.70;99.90
18593;DHT22;9426;54.118;17.948;2022-11-14T21:28:29;6.70;99.90
18593;DHT22;9426;54.118;17.948;2022-11-14T21:34:13;6.70;99.90
18593;DHT22;9426;54.118;17.948;2022-11-14T21:39:58;6.70;99.90
18593;DHT22;9426;54.118;17.948;2022-11-14T21:45:40;6.70;99.90
18593;DHT22;9426;54.118;17.948;2022-11-14T21:51:23;6.80;99.90
18593;DHT22;9426;54.118;17.948;2022-11-14T21:57:06;6.80;99.90
18593;DHT22;9426;54.118;17.948;2022-11-14T22:02:49;6.80;99.90
18593;DHT22;9426;54.118;17.948;2022-11-14T22:08:51;6.80;99.90
18593;DHT22;9426;54.118;17.948;2022-11-14T22:14:35;6.70;99.90
18593;DHT22;9426;54.118;17.948;2022-11-14T22:20:17;6.80;99.90
18593;DHT22;9426;54.118;17.948;2022-11-14T22:25:59;6.80;99.90
18593;DHT22;9426;54.118;17.948;2022-11-14T22:31:42;6.70;99.90
18593;DHT22;9426;54.118;17.948;2022-11-14T22:37:24;6.70;99.90
18593;DHT22;9426;54.118;17.948;2022-11-14T22:43:06;6.70;99.90
18593;DHT22;9426;54.118;17.948;2022-11-14T22:48:50;6.60;99.90
18593;DHT22;9426;54.118;17.948;2022-11-14T22:54:32;6.60;99.90
18593;DHT22;9426;54.118;17.948;2022-11-14T23:00:16;6.70;99.90
18593;DHT22;9426;54.118;17.948;2022-11-14T23:06:05;6.70;99.90
18593;DHT22;9426;54.118;17.948;2022-11-14T23:11:47;6.60;99.90
18593;DHT22;9426;54.118;17.948;2022-11-14T23:17:29;6.60;99.90
18593;DHT22;9426;54.118;17.948;2022-11-14T23:23:13;6.60;99.90
18593;DHT22;9426;54.118;17.948;2022-11-14T23:28:55;6.60;99.90
18593;DHT22;9426;54.118;17.948;2022-11-14T23:34:36;6.70;99.90
18593;DHT22;9426;54.118;17.948;2022-11-14T23:40:18;6.60;99.90
18593;DHT22;9426;54.118;17.948;2022-11-14T23:46:00;6.70;99.90
18593;DHT22;9426;54.118;17.948;2022-11-14T23:51:41;6.70;99.90
18593;DHT22;9426;54.118;17.948;2022-11-14T23:57:25;6.70;99.90
